sensor_id;sensor_type;location;lat;lon;timestamp;P1;durP1;ratioP1;P2;durP2;ratioP2
51467;SDS011;37545;45.302;-122.946;2022-12-16T00:01:20;2.42;;;1.70;;
51467;SDS011;37545;45.302;-122.946;2022-12-16T00:03:49;4.18;;;1.50;;
51467;SDS011;37545;45.302;-122.946;2022-12-16T00:06:19;2.05;;;1.20;;
51467;SDS011;37545;45.302;-122.946;2022-12-16T00:08:49;2.47;;;1.23;;
51467;SDS011;37545;45.302;-122.946;2022-12-16T00:11:19;2.83;;;1.30;;
51467;SDS011;37545;45.302;-122.946;2022-12-16T00:13:48;2.22;;;1.52;;
51467;SDS011;37545;45.302;-122.946;2022-12-16T00:16:17;2.08;;;1.20;;
51467;SDS011;37545;45.302;-122.946;2022-12-16T00:18:46;2.15;;;1.25;;
51467;SDS011;37545;45.302;-122.946;2022-12-16T00:21:15;2.92;;;1.42;;
51467;SDS011;37545;45.302;-122.946;2022-12-16T00:23:44;2.97;;;1.25;;
51467;SDS011;37545;45.302;-122.946;2022-12-16T00:26:13;2.55;;;1.33;;
51467;SDS011;37545;45.302;-122.946;2022-12-16T00:28:44;2.60;;;1.63;;
51467;SDS011;37545;45.302;-122.946;2022-12-16T00:31:12;2.67;;;1.33;;
51467;SDS011;37545;45.302;-122.946;2022-12-16T00:33:41;2.75;;;1.60;;
51467;SDS011;37545;45.302;-122.946;2022-12-16T00:36:10;2.20;;;1.10;;
51467;SDS011;37545;45.302;-122.946;2022-12-16T00:38:39;2.90;;;1.75;;
51467;SDS011;37545;45.302;-122.946;2022-12-16T00:41:07;2.72;;;1.10;;
51467;SDS011;37545;45.302;-122.946;2022-12-16T00:43:36;2.63;;;1.55;;
51467;SDS011;37545;45.302;-122.946;2022-12-16T00:46:06;3.25;;;1.58;;
51467;SDS011;37545;45.302;-122.946;2022-12-16T00:48:35;2.53;;;1.63;;
51467;SDS011;37545;45.302;-122.946;2022-12-16T00:51:04;3.30;;;1.80;;
51467;SDS011;37545;45.302;-122.946;2022-12-16T00:53:33;3.53;;;1.83;;
51467;SDS011;37545;45.302;-122.946;2022-12-16T00:56:03;4.53;;;1.92;;
51467;SDS011;37545;45.302;-122.946;2022-12-16T00:58:34;3.53;;;2.28;;
51467;SDS011;37545;45.302;-122.946;2022-12-16T01:01:03;2.42;;;1.70;;
51467;SDS011;37545;45.302;-122.946;2022-12-16T01:03:34;3.25;;;2.00;;
51467;SDS011;37545;45.302;-122.946;2022-12-16T01:06:06;6.53;;;2.03;;
51467;SDS011;37545;45.302;-122.946;2022-12-16T01:11:04;4.30;;;1.92;;
51467;SDS011;37545;45.302;-122.946;2022-12-16T01:13:33;4.95;;;1.85;;
51467;SDS011;37545;45.302;-122.946;2022-12-16T01:16:01;4.00;;;2.03;;
51467;SDS011;37545;45.302;-122.946;2022-12-16T01:18:30;2.45;;;1.90;;
51467;SDS011;37545;45.302;-122.946;2022-12-16T01:21:03;4.78;;;2.03;;
51467;SDS011;37545;45.302;-122.946;2022-12-16T01:23:40;4.63;;;1.85;;
51467;SDS011;37545;45.302;-122.946;2022-12-16T01:26:09;2.75;;;1.80;;
51467;SDS011;37545;45.302;-122.946;2022-12-16T01:28:43;4.15;;;2.17;;
51467;SDS011;37545;45.302;-122.946;2022-12-16T01:31:14;2.65;;;1.80;;
51467;SDS011;37545;45.302;-122.946;2022-12-16T01:33:44;3.13;;;1.67;;
51467;SDS011;37545;45.302;-122.946;2022-12-16T01:36:15;3.92;;;1.75;;
51467;SDS011;37545;45.302;-122.946;2022-12-16T01:38:44;3.97;;;1.70;;
51467;SDS011;37545;45.302;-122.946;2022-12-16T01:41:14;2.90;;;1.95;;
51467;SDS011;37545;45.302;-122.946;2022-12-16T01:43:43;3.15;;;1.80;;
51467;SDS011;37545;45.302;-122.946;2022-12-16T01:46:15;2.97;;;1.55;;
51467;SDS011;37545;45.302;-122.946;2022-12-16T01:48:49;2.83;;;1.33;;
51467;SDS011;37545;45.302;-122.946;2022-12-16T01:51:22;2.75;;;1.20;;
51467;SDS011;37545;45.302;-122.946;2022-12-16T01:53:55;5.35;;;2.17;;
51467;SDS011;37545;45.302;-122.946;2022-12-16T01:56:27;1.80;;;0.98;;
51467;SDS011;37545;45.302;-122.946;2022-12-16T02:01:28;2.92;;;1.23;;
51467;SDS011;37545;45.302;-122.946;2022-12-16T02:03:57;2.65;;;1.63;;
51467;SDS011;37545;45.302;-122.946;2022-12-16T02:06:29;2.60;;;1.88;;
51467;SDS011;37545;45.302;-122.946;2022-12-16T02:08:59;4.95;;;1.50;;
51467;SDS011;37545;45.302;-122.946;2022-12-16T02:11:44;4.32;;;1.52;;
51467;SDS011;37545;45.302;-122.946;2022-12-16T02:14:36;4.85;;;1.80;;
51467;SDS011;37545;45.302;-122.946;2022-12-16T02:17:18;4.20;;;1.90;;
51467;SDS011;37545;45.302;-122.946;2022-12-16T02:20:02;2.58;;;1.67;;
51467;SDS011;37545;45.302;-122.946;2022-12-16T02:22:48;2.63;;;1.73;;
51467;SDS011;37545;45.302;-122.946;2022-12-16T02:28:38;4.28;;;1.83;;
51467;SDS011;37545;45.302;-122.946;2022-12-16T02:31:24;5.63;;;2.08;;
51467;SDS011;37545;45.302;-122.946;2022-12-16T02:34:02;3.70;;;2.17;;
51467;SDS011;37545;45.302;-122.946;2022-12-16T02:36:42;4.47;;;2.20;;
51467;SDS011;37545;45.302;-122.946;2022-12-16T02:39:24;2.38;;;1.90;;
51467;SDS011;37545;45.302;-122.946;2022-12-16T02:42:03;3.88;;;2.20;;
51467;SDS011;37545;45.302;-122.946;2022-12-16T02:44:39;4.95;;;2.10;;
51467;SDS011;37545;45.302;-122.946;2022-12-16T02:47:17;5.47;;;2.55;;
51467;SDS011;37545;45.302;-122.946;2022-12-16T02:49:50;6.15;;;2.38;;
51467;SDS011;37545;45.302;-122.946;2022-12-16T02:52:21;5.00;;;2.38;;
51467;SDS011;37545;45.302;-122.946;2022-12-16T02:54:52;4.75;;;2.08;;
51467;SDS011;37545;45.302;-122.946;2022-12-16T03:00:21;6.15;;;2.05;;
51467;SDS011;37545;45.302;-122.946;2022-12-16T03:02:54;4.65;;;1.80;;
51467;SDS011;37545;45.302;-122.946;2022-12-16T03:05:27;4.05;;;2.53;;
51467;SDS011;37545;45.302;-122.946;2022-12-16T03:08:00;4.95;;;2.50;;
51467;SDS011;37545;45.302;-122.946;2022-12-16T03:10:34;2.30;;;1.70;;
51467;SDS011;37545;45.302;-122.946;2022-12-16T03:13:06;2.40;;;1.10;;
51467;SDS011;37545;45.302;-122.946;2022-12-16T03:15:37;4.78;;;1.67;;
51467;SDS011;37545;45.302;-122.946;2022-12-16T03:18:09;1.77;;;1.10;;
51467;SDS011;37545;45.302;-122.946;2022-12-16T03:20:41;2.95;;;1.40;;
51467;SDS011;37545;45.302;-122.946;2022-12-16T03:23:14;1.13;;;0.80;;
51467;SDS011;37545;45.302;-122.946;2022-12-16T03:25:48;2.55;;;1.17;;
51467;SDS011;37545;45.302;-122.946;2022-12-16T03:28:25;1.55;;;1.10;;
51467;SDS011;37545;45.302;-122.946;2022-12-16T03:31:02;2.20;;;0.80;;
51467;SDS011;37545;45.302;-122.946;2022-12-16T03:33:38;1.85;;;1.10;;
51467;SDS011;37545;45.302;-122.946;2022-12-16T03:36:13;1.23;;;0.80;;
51467;SDS011;37545;45.302;-122.946;2022-12-16T03:38:47;2.40;;;1.02;;
51467;SDS011;37545;45.302;-122.946;2022-12-16T03:41:18;1.17;;;0.80;;
51467;SDS011;37545;45.302;-122.946;2022-12-16T03:43:49;2.00;;;1.05;;
51467;SDS011;37545;45.302;-122.946;2022-12-16T03:46:19;2.15;;;1.20;;
51467;SDS011;37545;45.302;-122.946;2022-12-16T03:48:50;1.77;;;0.90;;
51467;SDS011;37545;45.302;-122.946;2022-12-16T03:51:19;1.92;;;0.75;;
51467;SDS011;37545;45.302;-122.946;2022-12-16T03:53:47;2.05;;;1.15;;
51467;SDS011;37545;45.302;-122.946;2022-12-16T03:56:16;2.90;;;1.02;;
51467;SDS011;37545;45.302;-122.946;2022-12-16T03:58:45;2.10;;;1.60;;
51467;SDS011;37545;45.302;-122.946;2022-12-16T04:01:13;3.33;;;1.05;;
51467;SDS011;37545;45.302;-122.946;2022-12-16T04:03:42;2.72;;;1.10;;
51467;SDS011;37545;45.302;-122.946;2022-12-16T04:06:12;2.78;;;1.27;;
51467;SDS011;37545;45.302;-122.946;2022-12-16T04:08:43;2.60;;;1.08;;
51467;SDS011;37545;45.302;-122.946;2022-12-16T04:11:12;2.55;;;0.90;;
51467;SDS011;37545;45.302;-122.946;2022-12-16T04:13:58;1.55;;;0.98;;
51467;SDS011;37545;45.302;-122.946;2022-12-16T04:16:44;3.63;;;1.45;;
51467;SDS011;37545;45.302;-122.946;2022-12-16T04:19:29;4.45;;;1.13;;
51467;SDS011;37545;45.302;-122.946;2022-12-16T04:22:20;2.00;;;1.13;;
51467;SDS011;37545;45.302;-122.946;2022-12-16T04:25:09;2.05;;;1.15;;
51467;SDS011;37545;45.302;-122.946;2022-12-16T04:27:40;1.83;;;1.15;;
51467;SDS011;37545;45.302;-122.946;2022-12-16T04:30:11;1.58;;;1.10;;
51467;SDS011;37545;45.302;-122.946;2022-12-16T04:32:55;2.65;;;1.20;;
51467;SDS011;37545;45.302;-122.946;2022-12-16T04:35:43;2.40;;;1.15;;
51467;SDS011;37545;45.302;-122.946;2022-12-16T04:38:30;5.70;;;1.13;;
51467;SDS011;37545;45.302;-122.946;2022-12-16T04:41:15;1.80;;;0.80;;
51467;SDS011;37545;45.302;-122.946;2022-12-16T04:44:01;2.95;;;1.10;;
51467;SDS011;37545;45.302;-122.946;2022-12-16T04:46:48;1.52;;;0.90;;
51467;SDS011;37545;45.302;-122.946;2022-12-16T04:49:33;1.85;;;1.10;;
51467;SDS011;37545;45.302;-122.946;2022-12-16T04:52:19;1.80;;;1.10;;
51467;SDS011;37545;45.302;-122.946;2022-12-16T04:55:06;1.65;;;0.80;;
51467;SDS011;37545;45.302;-122.946;2022-12-16T04:57:53;2.10;;;1.10;;
51467;SDS011;37545;45.302;-122.946;2022-12-16T05:00:48;1.73;;;0.90;;
51467;SDS011;37545;45.302;-122.946;2022-12-16T05:03:33;2.75;;;1.23;;
51467;SDS011;37545;45.302;-122.946;2022-12-16T05:06:19;5.07;;;1.30;;
51467;SDS011;37545;45.302;-122.946;2022-12-16T05:09:05;2.13;;;1.30;;
51467;SDS011;37545;45.302;-122.946;2022-12-16T05:11:52;2.35;;;1.27;;
51467;SDS011;37545;45.302;-122.946;2022-12-16T05:14:38;1.85;;;1.08;;
51467;SDS011;37545;45.302;-122.946;2022-12-16T05:17:23;1.25;;;0.95;;
51467;SDS011;37545;45.302;-122.946;2022-12-16T05:20:09;1.83;;;1.00;;
51467;SDS011;37545;45.302;-122.946;2022-12-16T05:22:55;2.03;;;1.20;;
51467;SDS011;37545;45.302;-122.946;2022-12-16T05:25:40;3.55;;;1.17;;
51467;SDS011;37545;45.302;-122.946;2022-12-16T05:28:27;1.30;;;0.90;;
51467;SDS011;37545;45.302;-122.946;2022-12-16T05:31:13;1.35;;;0.80;;
51467;SDS011;37545;45.302;-122.946;2022-12-16T05:33:59;1.85;;;1.02;;
51467;SDS011;37545;45.302;-122.946;2022-12-16T05:36:44;3.33;;;1.13;;
51467;SDS011;37545;45.302;-122.946;2022-12-16T05:39:30;2.22;;;1.00;;
51467;SDS011;37545;45.302;-122.946;2022-12-16T05:42:15;2.50;;;0.93;;
51467;SDS011;37545;45.302;-122.946;2022-12-16T05:45:03;2.67;;;1.40;;
51467;SDS011;37545;45.302;-122.946;2022-12-16T05:47:48;2.85;;;1.20;;
51467;SDS011;37545;45.302;-122.946;2022-12-16T05:50:33;2.70;;;1.25;;
51467;SDS011;37545;45.302;-122.946;2022-12-16T05:53:19;1.55;;;1.05;;
51467;SDS011;37545;45.302;-122.946;2022-12-16T05:56:04;2.58;;;1.10;;
51467;SDS011;37545;45.302;-122.946;2022-12-16T05:59:05;2.13;;;1.00;;
51467;SDS011;37545;45.302;-122.946;2022-12-16T06:01:52;1.98;;;1.15;;
51467;SDS011;37545;45.302;-122.946;2022-12-16T06:04:37;1.92;;;1.20;;
51467;SDS011;37545;45.302;-122.946;2022-12-16T06:07:22;2.05;;;1.08;;
51467;SDS011;37545;45.302;-122.946;2022-12-16T06:10:08;3.88;;;1.60;;
51467;SDS011;37545;45.302;-122.946;2022-12-16T06:12:54;2.10;;;0.93;;
51467;SDS011;37545;45.302;-122.946;2022-12-16T06:15:39;2.25;;;1.05;;
51467;SDS011;37545;45.302;-122.946;2022-12-16T06:18:26;2.42;;;1.42;;
51467;SDS011;37545;45.302;-122.946;2022-12-16T06:21:11;2.80;;;1.20;;
51467;SDS011;37545;45.302;-122.946;2022-12-16T06:23:56;2.75;;;1.30;;
51467;SDS011;37545;45.302;-122.946;2022-12-16T06:26:42;1.73;;;1.00;;
51467;SDS011;37545;45.302;-122.946;2022-12-16T06:29:27;2.13;;;1.10;;
51467;SDS011;37545;45.302;-122.946;2022-12-16T06:32:24;1.88;;;1.10;;
51467;SDS011;37545;45.302;-122.946;2022-12-16T06:35:11;2.50;;;1.00;;
51467;SDS011;37545;45.302;-122.946;2022-12-16T06:37:56;1.75;;;1.02;;
51467;SDS011;37545;45.302;-122.946;2022-12-16T06:40:42;2.58;;;1.00;;
51467;SDS011;37545;45.302;-122.946;2022-12-16T06:43:27;2.88;;;0.80;;
51467;SDS011;37545;45.302;-122.946;2022-12-16T06:46:13;2.35;;;1.38;;
51467;SDS011;37545;45.302;-122.946;2022-12-16T06:48:58;2.00;;;0.90;;
51467;SDS011;37545;45.302;-122.946;2022-12-16T06:51:45;1.27;;;0.77;;
51467;SDS011;37545;45.302;-122.946;2022-12-16T06:54:31;2.17;;;0.93;;
51467;SDS011;37545;45.302;-122.946;2022-12-16T06:57:16;1.40;;;0.90;;
51467;SDS011;37545;45.302;-122.946;2022-12-16T07:00:02;2.60;;;0.98;;
51467;SDS011;37545;45.302;-122.946;2022-12-16T07:02:48;2.10;;;1.23;;
51467;SDS011;37545;45.302;-122.946;2022-12-16T07:05:33;4.15;;;1.05;;
51467;SDS011;37545;45.302;-122.946;2022-12-16T07:08:20;2.30;;;1.23;;
51467;SDS011;37545;45.302;-122.946;2022-12-16T07:11:05;2.45;;;1.08;;
51467;SDS011;37545;45.302;-122.946;2022-12-16T07:13:51;3.13;;;1.42;;
51467;SDS011;37545;45.302;-122.946;2022-12-16T07:16:32;1.98;;;0.80;;
51467;SDS011;37545;45.302;-122.946;2022-12-16T07:19:18;3.13;;;1.05;;
51467;SDS011;37545;45.302;-122.946;2022-12-16T07:22:03;4.10;;;1.13;;
51467;SDS011;37545;45.302;-122.946;2022-12-16T07:24:50;2.05;;;1.00;;
51467;SDS011;37545;45.302;-122.946;2022-12-16T07:27:35;2.10;;;1.05;;
51467;SDS011;37545;45.302;-122.946;2022-12-16T07:30:20;3.50;;;1.02;;
51467;SDS011;37545;45.302;-122.946;2022-12-16T07:33:05;1.55;;;1.10;;
51467;SDS011;37545;45.302;-122.946;2022-12-16T07:35:51;2.50;;;1.10;;
51467;SDS011;37545;45.302;-122.946;2022-12-16T07:38:36;2.88;;;1.15;;
51467;SDS011;37545;45.302;-122.946;2022-12-16T07:41:22;2.17;;;0.70;;
51467;SDS011;37545;45.302;-122.946;2022-12-16T07:44:08;1.50;;;0.82;;
51467;SDS011;37545;45.302;-122.946;2022-12-16T07:46:53;1.52;;;0.75;;
51467;SDS011;37545;45.302;-122.946;2022-12-16T07:49:38;1.13;;;0.63;;
51467;SDS011;37545;45.302;-122.946;2022-12-16T07:52:23;0.80;;;0.77;;
51467;SDS011;37545;45.302;-122.946;2022-12-16T07:55:20;2.30;;;0.95;;
51467;SDS011;37545;45.302;-122.946;2022-12-16T07:58:07;1.42;;;0.77;;
51467;SDS011;37545;45.302;-122.946;2022-12-16T08:00:55;3.83;;;0.90;;
51467;SDS011;37545;45.302;-122.946;2022-12-16T08:03:39;1.73;;;0.75;;
51467;SDS011;37545;45.302;-122.946;2022-12-16T08:06:25;3.05;;;0.95;;
51467;SDS011;37545;45.302;-122.946;2022-12-16T08:09:10;2.42;;;0.80;;
51467;SDS011;37545;45.302;-122.946;2022-12-16T08:11:55;2.40;;;0.80;;
51467;SDS011;37545;45.302;-122.946;2022-12-16T08:14:42;1.90;;;0.90;;
51467;SDS011;37545;45.302;-122.946;2022-12-16T08:17:27;3.72;;;0.90;;
51467;SDS011;37545;45.302;-122.946;2022-12-16T08:20:12;2.95;;;0.80;;
51467;SDS011;37545;45.302;-122.946;2022-12-16T08:22:58;0.88;;;0.70;;
51467;SDS011;37545;45.302;-122.946;2022-12-16T08:25:43;1.85;;;1.05;;
51467;SDS011;37545;45.302;-122.946;2022-12-16T08:28:29;1.45;;;0.80;;
51467;SDS011;37545;45.302;-122.946;2022-12-16T08:31:14;1.55;;;0.85;;
51467;SDS011;37545;45.302;-122.946;2022-12-16T08:34:00;1.23;;;0.90;;
51467;SDS011;37545;45.302;-122.946;2022-12-16T08:36:44;1.27;;;0.73;;
51467;SDS011;37545;45.302;-122.946;2022-12-16T08:39:29;1.80;;;1.08;;
51467;SDS011;37545;45.302;-122.946;2022-12-16T08:42:15;2.55;;;1.02;;
51467;SDS011;37545;45.302;-122.946;2022-12-16T08:45:00;1.77;;;1.00;;
51467;SDS011;37545;45.302;-122.946;2022-12-16T08:47:47;2.55;;;1.25;;
51467;SDS011;37545;45.302;-122.946;2022-12-16T08:50:32;1.25;;;1.05;;
51467;SDS011;37545;45.302;-122.946;2022-12-16T08:53:17;6.68;;;0.68;;
51467;SDS011;37545;45.302;-122.946;2022-12-16T08:56:03;2.65;;;1.00;;
51467;SDS011;37545;45.302;-122.946;2022-12-16T08:58:48;1.70;;;0.80;;
51467;SDS011;37545;45.302;-122.946;2022-12-16T09:01:40;1.88;;;0.80;;
51467;SDS011;37545;45.302;-122.946;2022-12-16T09:04:27;2.40;;;1.27;;
51467;SDS011;37545;45.302;-122.946;2022-12-16T09:07:27;2.83;;;0.85;;
51467;SDS011;37545;45.302;-122.946;2022-12-16T09:10:12;2.67;;;1.15;;
51467;SDS011;37545;45.302;-122.946;2022-12-16T09:13:03;1.80;;;0.90;;
51467;SDS011;37545;45.302;-122.946;2022-12-16T09:15:49;1.77;;;0.90;;
51467;SDS011;37545;45.302;-122.946;2022-12-16T09:18:34;1.63;;;1.10;;
51467;SDS011;37545;45.302;-122.946;2022-12-16T09:21:22;2.22;;;0.88;;
51467;SDS011;37545;45.302;-122.946;2022-12-16T09:24:15;1.45;;;1.05;;
51467;SDS011;37545;45.302;-122.946;2022-12-16T09:27:00;2.70;;;1.02;;
51467;SDS011;37545;45.302;-122.946;2022-12-16T09:29:46;1.38;;;0.93;;
51467;SDS011;37545;45.302;-122.946;2022-12-16T09:32:31;1.67;;;1.10;;
51467;SDS011;37545;45.302;-122.946;2022-12-16T09:35:16;3.42;;;1.10;;
51467;SDS011;37545;45.302;-122.946;2022-12-16T09:38:02;2.97;;;1.00;;
51467;SDS011;37545;45.302;-122.946;2022-12-16T09:40:48;2.35;;;1.00;;
51467;SDS011;37545;45.302;-122.946;2022-12-16T09:43:41;2.47;;;1.40;;
51467;SDS011;37545;45.302;-122.946;2022-12-16T09:46:36;2.65;;;1.10;;
51467;SDS011;37545;45.302;-122.946;2022-12-16T09:49:31;3.70;;;1.20;;
51467;SDS011;37545;45.302;-122.946;2022-12-16T09:52:27;2.92;;;0.88;;
51467;SDS011;37545;45.302;-122.946;2022-12-16T09:55:19;2.42;;;0.82;;
51467;SDS011;37545;45.302;-122.946;2022-12-16T09:58:08;1.60;;;0.82;;
51467;SDS011;37545;45.302;-122.946;2022-12-16T10:00:56;0.98;;;0.73;;
51467;SDS011;37545;45.302;-122.946;2022-12-16T10:03:41;2.70;;;1.10;;
51467;SDS011;37545;45.302;-122.946;2022-12-16T10:06:30;1.70;;;0.73;;
51467;SDS011;37545;45.302;-122.946;2022-12-16T10:09:25;1.50;;;1.05;;
51467;SDS011;37545;45.302;-122.946;2022-12-16T10:12:19;1.75;;;0.88;;
51467;SDS011;37545;45.302;-122.946;2022-12-16T10:15:14;2.15;;;0.93;;
51467;SDS011;37545;45.302;-122.946;2022-12-16T10:18:12;0.75;;;0.50;;
51467;SDS011;37545;45.302;-122.946;2022-12-16T10:21:06;3.65;;;1.10;;
51467;SDS011;37545;45.302;-122.946;2022-12-16T10:23:54;2.60;;;1.75;;
51467;SDS011;37545;45.302;-122.946;2022-12-16T10:26:48;1.43;;;0.97;;
51467;SDS011;37545;45.302;-122.946;2022-12-16T10:29:39;1.75;;;1.15;;
51467;SDS011;37545;45.302;-122.946;2022-12-16T10:32:31;1.73;;;0.93;;
51467;SDS011;37545;45.302;-122.946;2022-12-16T10:35:22;0.90;;;0.65;;
51467;SDS011;37545;45.302;-122.946;2022-12-16T10:38:13;1.63;;;1.10;;
51467;SDS011;37545;45.302;-122.946;2022-12-16T10:41:04;2.67;;;1.05;;
51467;SDS011;37545;45.302;-122.946;2022-12-16T10:43:51;2.38;;;0.80;;
51467;SDS011;37545;45.302;-122.946;2022-12-16T10:46:41;1.17;;;0.75;;
51467;SDS011;37545;45.302;-122.946;2022-12-16T10:49:25;1.83;;;1.10;;
51467;SDS011;37545;45.302;-122.946;2022-12-16T10:52:11;2.35;;;1.00;;
51467;SDS011;37545;45.302;-122.946;2022-12-16T10:54:58;1.27;;;0.75;;
51467;SDS011;37545;45.302;-122.946;2022-12-16T10:57:57;2.47;;;0.93;;
51467;SDS011;37545;45.302;-122.946;2022-12-16T11:00:46;1.60;;;0.90;;
51467;SDS011;37545;45.302;-122.946;2022-12-16T11:03:35;1.20;;;0.80;;
51467;SDS011;37545;45.302;-122.946;2022-12-16T11:06:23;2.22;;;0.90;;
51467;SDS011;37545;45.302;-122.946;2022-12-16T11:09:14;3.83;;;1.10;;
51467;SDS011;37545;45.302;-122.946;2022-12-16T11:12:15;1.63;;;0.88;;
51467;SDS011;37545;45.302;-122.946;2022-12-16T11:15:17;1.60;;;0.90;;
51467;SDS011;37545;45.302;-122.946;2022-12-16T11:18:05;1.70;;;1.08;;
51467;SDS011;37545;45.302;-122.946;2022-12-16T11:21:04;2.25;;;0.80;;
51467;SDS011;37545;45.302;-122.946;2022-12-16T11:24:05;0.98;;;0.63;;
51467;SDS011;37545;45.302;-122.946;2022-12-16T11:26:53;3.72;;;0.95;;
51467;SDS011;37545;45.302;-122.946;2022-12-16T11:29:50;2.15;;;0.85;;
51467;SDS011;37545;45.302;-122.946;2022-12-16T11:32:36;0.98;;;0.73;;
51467;SDS011;37545;45.302;-122.946;2022-12-16T11:35:23;1.98;;;1.17;;
51467;SDS011;37545;45.302;-122.946;2022-12-16T11:38:15;1.45;;;0.75;;
51467;SDS011;37545;45.302;-122.946;2022-12-16T11:41:05;2.03;;;0.98;;
51467;SDS011;37545;45.302;-122.946;2022-12-16T11:43:52;1.73;;;1.20;;
51467;SDS011;37545;45.302;-122.946;2022-12-16T11:46:38;2.22;;;1.05;;
51467;SDS011;37545;45.302;-122.946;2022-12-16T11:49:25;0.70;;;0.57;;
51467;SDS011;37545;45.302;-122.946;2022-12-16T11:52:15;1.90;;;0.73;;
51467;SDS011;37545;45.302;-122.946;2022-12-16T11:55:06;1.80;;;0.77;;
51467;SDS011;37545;45.302;-122.946;2022-12-16T11:58:01;1.42;;;0.88;;
51467;SDS011;37545;45.302;-122.946;2022-12-16T12:00:57;1.58;;;0.60;;
51467;SDS011;37545;45.302;-122.946;2022-12-16T12:03:52;1.75;;;0.90;;
51467;SDS011;37545;45.302;-122.946;2022-12-16T12:06:42;2.13;;;1.15;;
51467;SDS011;37545;45.302;-122.946;2022-12-16T12:09:46;1.08;;;0.65;;
51467;SDS011;37545;45.302;-122.946;2022-12-16T12:12:40;2.28;;;0.65;;
51467;SDS011;37545;45.302;-122.946;2022-12-16T12:15:32;1.48;;;0.85;;
51467;SDS011;37545;45.302;-122.946;2022-12-16T12:18:23;1.88;;;1.08;;
51467;SDS011;37545;45.302;-122.946;2022-12-16T12:21:24;0.75;;;0.50;;
51467;SDS011;37545;45.302;-122.946;2022-12-16T12:24:15;0.98;;;0.70;;
51467;SDS011;37545;45.302;-122.946;2022-12-16T12:27:11;0.80;;;0.63;;
51467;SDS011;37545;45.302;-122.946;2022-12-16T12:30:03;2.38;;;0.85;;
51467;SDS011;37545;45.302;-122.946;2022-12-16T12:32:52;1.70;;;0.93;;
51467;SDS011;37545;45.302;-122.946;2022-12-16T12:35:50;2.05;;;0.80;;
51467;SDS011;37545;45.302;-122.946;2022-12-16T12:38:46;1.52;;;0.73;;
51467;SDS011;37545;45.302;-122.946;2022-12-16T12:41:53;0.82;;;0.50;;
51467;SDS011;37545;45.302;-122.946;2022-12-16T12:44:50;2.53;;;1.05;;
51467;SDS011;37545;45.302;-122.946;2022-12-16T12:47:46;3.80;;;1.02;;
51467;SDS011;37545;45.302;-122.946;2022-12-16T12:50:40;1.48;;;0.60;;
51467;SDS011;37545;45.302;-122.946;2022-12-16T12:53:34;2.05;;;1.05;;
51467;SDS011;37545;45.302;-122.946;2022-12-16T12:56:36;0.63;;;0.50;;
51467;SDS011;37545;45.302;-122.946;2022-12-16T12:59:29;0.98;;;0.70;;
51467;SDS011;37545;45.302;-122.946;2022-12-16T13:02:24;1.30;;;0.77;;
51467;SDS011;37545;45.302;-122.946;2022-12-16T13:05:14;1.35;;;0.77;;
51467;SDS011;37545;45.302;-122.946;2022-12-16T13:11:19;1.25;;;0.60;;
51467;SDS011;37545;45.302;-122.946;2022-12-16T13:17:23;1.10;;;0.52;;
51467;SDS011;37545;45.302;-122.946;2022-12-16T13:23:30;1.90;;;0.47;;
51467;SDS011;37545;45.302;-122.946;2022-12-16T13:26:31;1.52;;;0.90;;
51467;SDS011;37545;45.302;-122.946;2022-12-16T13:29:18;2.42;;;0.95;;
51467;SDS011;37545;45.302;-122.946;2022-12-16T13:32:15;1.13;;;0.50;;
51467;SDS011;37545;45.302;-122.946;2022-12-16T13:35:02;0.95;;;0.50;;
51467;SDS011;37545;45.302;-122.946;2022-12-16T13:37:59;1.30;;;0.80;;
51467;SDS011;37545;45.302;-122.946;2022-12-16T13:40:47;11.43;;;1.20;;
51467;SDS011;37545;45.302;-122.946;2022-12-16T13:43:47;0.95;;;0.70;;
51467;SDS011;37545;45.302;-122.946;2022-12-16T13:46:41;1.45;;;0.90;;
51467;SDS011;37545;45.302;-122.946;2022-12-16T13:49:41;4.65;;;1.10;;
51467;SDS011;37545;45.302;-122.946;2022-12-16T13:52:35;1.35;;;0.65;;
51467;SDS011;37545;45.302;-122.946;2022-12-16T13:55:28;1.67;;;0.90;;
51467;SDS011;37545;45.302;-122.946;2022-12-16T13:58:19;0.95;;;0.55;;
51467;SDS011;37545;45.302;-122.946;2022-12-16T14:01:12;1.10;;;0.60;;
51467;SDS011;37545;45.302;-122.946;2022-12-16T14:04:06;0.55;;;0.55;;
51467;SDS011;37545;45.302;-122.946;2022-12-16T14:06:55;1.75;;;0.65;;
51467;SDS011;37545;45.302;-122.946;2022-12-16T14:09:46;1.15;;;0.70;;
51467;SDS011;37545;45.302;-122.946;2022-12-16T14:12:47;2.10;;;0.82;;
51467;SDS011;37545;45.302;-122.946;2022-12-16T14:15:46;3.60;;;0.70;;
51467;SDS011;37545;45.302;-122.946;2022-12-16T14:18:42;3.28;;;0.70;;
51467;SDS011;37545;45.302;-122.946;2022-12-16T14:21:38;1.98;;;1.13;;
51467;SDS011;37545;45.302;-122.946;2022-12-16T14:24:28;2.35;;;1.13;;
51467;SDS011;37545;45.302;-122.946;2022-12-16T14:27:15;1.52;;;1.00;;
51467;SDS011;37545;45.302;-122.946;2022-12-16T14:30:10;2.30;;;0.82;;
51467;SDS011;37545;45.302;-122.946;2022-12-16T14:32:59;3.08;;;1.00;;
51467;SDS011;37545;45.302;-122.946;2022-12-16T14:35:58;2.17;;;1.00;;
51467;SDS011;37545;45.302;-122.946;2022-12-16T14:38:46;1.73;;;0.88;;
51467;SDS011;37545;45.302;-122.946;2022-12-16T14:41:32;1.00;;;0.65;;
51467;SDS011;37545;45.302;-122.946;2022-12-16T14:44:18;1.60;;;0.98;;
51467;SDS011;37545;45.302;-122.946;2022-12-16T14:47:09;1.73;;;0.82;;
51467;SDS011;37545;45.302;-122.946;2022-12-16T14:50:00;1.73;;;1.17;;
51467;SDS011;37545;45.302;-122.946;2022-12-16T14:53:05;1.83;;;0.80;;
51467;SDS011;37545;45.302;-122.946;2022-12-16T14:56:08;1.90;;;0.85;;
51467;SDS011;37545;45.302;-122.946;2022-12-16T14:59:08;1.40;;;0.95;;
51467;SDS011;37545;45.302;-122.946;2022-12-16T15:01:56;4.93;;;1.20;;
51467;SDS011;37545;45.302;-122.946;2022-12-16T15:04:49;2.15;;;1.00;;
51467;SDS011;37545;45.302;-122.946;2022-12-16T15:07:35;2.08;;;1.17;;
51467;SDS011;37545;45.302;-122.946;2022-12-16T15:10:21;1.63;;;1.10;;
51467;SDS011;37545;45.302;-122.946;2022-12-16T15:13:12;1.42;;;0.73;;
51467;SDS011;37545;45.302;-122.946;2022-12-16T15:16:00;1.77;;;0.95;;
51467;SDS011;37545;45.302;-122.946;2022-12-16T15:18:47;3.35;;;1.35;;
51467;SDS011;37545;45.302;-122.946;2022-12-16T15:21:42;2.03;;;0.98;;
51467;SDS011;37545;45.302;-122.946;2022-12-16T15:24:28;2.10;;;1.30;;
51467;SDS011;37545;45.302;-122.946;2022-12-16T15:27:24;1.65;;;0.80;;
51467;SDS011;37545;45.302;-122.946;2022-12-16T15:33:21;1.58;;;0.70;;
51467;SDS011;37545;45.302;-122.946;2022-12-16T15:36:14;2.25;;;0.65;;
51467;SDS011;37545;45.302;-122.946;2022-12-16T15:39:13;1.33;;;1.00;;
51467;SDS011;37545;45.302;-122.946;2022-12-16T15:42:15;1.55;;;0.88;;
51467;SDS011;37545;45.302;-122.946;2022-12-16T15:45:04;1.67;;;0.68;;
51467;SDS011;37545;45.302;-122.946;2022-12-16T15:47:59;2.35;;;0.88;;
51467;SDS011;37545;45.302;-122.946;2022-12-16T15:50:53;1.83;;;0.80;;
51467;SDS011;37545;45.302;-122.946;2022-12-16T15:54:00;1.48;;;0.95;;
51467;SDS011;37545;45.302;-122.946;2022-12-16T15:57:02;1.95;;;0.85;;
51467;SDS011;37545;45.302;-122.946;2022-12-16T16:00:16;1.65;;;0.63;;
51467;SDS011;37545;45.302;-122.946;2022-12-16T16:03:04;2.50;;;1.50;;
51467;SDS011;37545;45.302;-122.946;2022-12-16T16:06:12;0.57;;;0.50;;
51467;SDS011;37545;45.302;-122.946;2022-12-16T16:08:59;2.08;;;0.95;;
51467;SDS011;37545;45.302;-122.946;2022-12-16T16:11:44;2.35;;;0.70;;
51467;SDS011;37545;45.302;-122.946;2022-12-16T16:14:32;1.15;;;0.60;;